Keuterville, Idaho
Current Conditions -  °F | °C
As of 3:15 AM on Tuesday 21 Oct 2014 (Local Time) from KGIC Reporting Station
Overcast Overcast  
Wind Chill: 47°   Ceiling: 4100
Heat Index: 47°   Visibility: 10mi
Dew Point: 43°   Wind: 3mph
Humidity: 86%   Direction: 190°S
Pressure: 29.93"   Gusts: NA
Location:  45.9123°N, 116.505°W
Report Text: KGIC 211015Z AUTO 19003KT 10SM SCT025 OVC041 08/06 A2993 RMK AO1 P0001 T00820060
Loading
Personal Weather Stations






























Interactive Weather Map
Tropical Storm Tracking
New forecast layout! Learn more

10-Day Weather Forecast

Advertisements
Track Severe Weather on mobile